sensor_id;sensor_type;location;lat;lon;timestamp;P1;durP1;ratioP1;P2;durP2;ratioP2
10092;SDS011;5085;48.092;11.484;2023-03-05T00:01:53;19.30;;;8.48;;
10092;SDS011;5085;48.092;11.484;2023-03-05T00:04:19;23.15;;;9.15;;
10092;SDS011;5085;48.092;11.484;2023-03-05T00:06:46;19.42;;;8.68;;
10092;SDS011;5085;48.092;11.484;2023-03-05T00:09:12;20.88;;;9.52;;
10092;SDS011;5085;48.092;11.484;2023-03-05T00:11:39;18.25;;;8.05;;
10092;SDS011;5085;48.092;11.484;2023-03-05T00:14:05;20.70;;;8.82;;
10092;SDS011;5085;48.092;11.484;2023-03-05T00:16:31;19.75;;;7.65;;
10092;SDS011;5085;48.092;11.484;2023-03-05T00:18:58;24.10;;;8.30;;
10092;SDS011;5085;48.092;11.484;2023-03-05T00:21:32;23.02;;;8.88;;
10092;SDS011;5085;48.092;11.484;2023-03-05T00:24:02;21.60;;;9.05;;
10092;SDS011;5085;48.092;11.484;2023-03-05T00:26:30;22.10;;;7.65;;
10092;SDS011;5085;48.092;11.484;2023-03-05T00:28:56;18.52;;;8.20;;
10092;SDS011;5085;48.092;11.484;2023-03-05T00:31:24;20.23;;;8.73;;
10092;SDS011;5085;48.092;11.484;2023-03-05T00:33:55;18.25;;;9.60;;
10092;SDS011;5085;48.092;11.484;2023-03-05T00:38:52;20.48;;;8.52;;
10092;SDS011;5085;48.092;11.484;2023-03-05T00:41:19;14.55;;;7.00;;
10092;SDS011;5085;48.092;11.484;2023-03-05T00:43:45;19.13;;;8.38;;
10092;SDS011;5085;48.092;11.484;2023-03-05T00:46:12;20.58;;;8.93;;
10092;SDS011;5085;48.092;11.484;2023-03-05T00:48:38;17.95;;;6.80;;
10092;SDS011;5085;48.092;11.484;2023-03-05T00:51:04;21.52;;;8.38;;
10092;SDS011;5085;48.092;11.484;2023-03-05T00:53:31;20.45;;;8.15;;
10092;SDS011;5085;48.092;11.484;2023-03-05T00:56:06;27.77;;;9.90;;
10092;SDS011;5085;48.092;11.484;2023-03-05T01:01:24;19.23;;;7.40;;
10092;SDS011;5085;48.092;11.484;2023-03-05T01:03:50;19.88;;;8.25;;
10092;SDS011;5085;48.092;11.484;2023-03-05T01:06:16;26.00;;;9.57;;
10092;SDS011;5085;48.092;11.484;2023-03-05T01:08:43;19.60;;;8.05;;
10092;SDS011;5085;48.092;11.484;2023-03-05T01:11:10;21.85;;;8.55;;
10092;SDS011;5085;48.092;11.484;2023-03-05T01:13:36;24.85;;;9.63;;
10092;SDS011;5085;48.092;11.484;2023-03-05T01:16:06;21.05;;;7.40;;
10092;SDS011;5085;48.092;11.484;2023-03-05T01:18:36;20.27;;;9.50;;
10092;SDS011;5085;48.092;11.484;2023-03-05T01:21:03;20.17;;;7.43;;
10092;SDS011;5085;48.092;11.484;2023-03-05T01:23:30;21.30;;;8.52;;
10092;SDS011;5085;48.092;11.484;2023-03-05T01:25:56;17.30;;;7.03;;
10092;SDS011;5085;48.092;11.484;2023-03-05T01:28:24;18.33;;;6.90;;
10092;SDS011;5085;48.092;11.484;2023-03-05T01:30:50;19.42;;;8.35;;
10092;SDS011;5085;48.092;11.484;2023-03-05T01:33:16;20.70;;;8.15;;
10092;SDS011;5085;48.092;11.484;2023-03-05T01:35:45;18.48;;;8.15;;
10092;SDS011;5085;48.092;11.484;2023-03-05T01:38:12;20.08;;;8.45;;
10092;SDS011;5085;48.092;11.484;2023-03-05T01:40:38;19.10;;;7.93;;
10092;SDS011;5085;48.092;11.484;2023-03-05T01:43:17;20.42;;;7.78;;
10092;SDS011;5085;48.092;11.484;2023-03-05T01:48:58;18.27;;;8.13;;
10092;SDS011;5085;48.092;11.484;2023-03-05T01:51:32;23.15;;;8.73;;
10092;SDS011;5085;48.092;11.484;2023-03-05T01:54:02;19.40;;;8.52;;
10092;SDS011;5085;48.092;11.484;2023-03-05T01:56:31;17.95;;;8.40;;
10092;SDS011;5085;48.092;11.484;2023-03-05T01:58:58;18.08;;;7.85;;
10092;SDS011;5085;48.092;11.484;2023-03-05T02:01:30;17.40;;;7.40;;
10092;SDS011;5085;48.092;11.484;2023-03-05T02:03:58;17.13;;;7.60;;
10092;SDS011;5085;48.092;11.484;2023-03-05T02:06:25;19.15;;;6.90;;
10092;SDS011;5085;48.092;11.484;2023-03-05T02:08:51;22.58;;;8.20;;
10092;SDS011;5085;48.092;11.484;2023-03-05T02:11:17;21.25;;;8.90;;
10092;SDS011;5085;48.092;11.484;2023-03-05T02:13:43;18.63;;;7.22;;
10092;SDS011;5085;48.092;11.484;2023-03-05T02:16:09;21.52;;;8.88;;
10092;SDS011;5085;48.092;11.484;2023-03-05T02:18:35;17.92;;;8.13;;
10092;SDS011;5085;48.092;11.484;2023-03-05T02:21:05;20.10;;;7.28;;
10092;SDS011;5085;48.092;11.484;2023-03-05T02:23:32;18.95;;;8.00;;
10092;SDS011;5085;48.092;11.484;2023-03-05T02:26:05;16.17;;;7.60;;
10092;SDS011;5085;48.092;11.484;2023-03-05T02:28:40;14.98;;;6.78;;
10092;SDS011;5085;48.092;11.484;2023-03-05T02:31:09;16.48;;;6.97;;
10092;SDS011;5085;48.092;11.484;2023-03-05T02:33:38;19.60;;;6.97;;
10092;SDS011;5085;48.092;11.484;2023-03-05T02:36:05;22.50;;;7.25;;
10092;SDS011;5085;48.092;11.484;2023-03-05T02:38:32;19.35;;;8.15;;
10092;SDS011;5085;48.092;11.484;2023-03-05T02:40:58;17.67;;;8.20;;
10092;SDS011;5085;48.092;11.484;2023-03-05T02:43:24;18.50;;;8.35;;
10092;SDS011;5085;48.092;11.484;2023-03-05T02:45:51;24.50;;;9.35;;
10092;SDS011;5085;48.092;11.484;2023-03-05T02:48:17;17.73;;;7.68;;
10092;SDS011;5085;48.092;11.484;2023-03-05T02:50:43;19.83;;;8.45;;
10092;SDS011;5085;48.092;11.484;2023-03-05T02:53:09;22.45;;;7.95;;
10092;SDS011;5085;48.092;11.484;2023-03-05T02:55:36;17.02;;;7.68;;
10092;SDS011;5085;48.092;11.484;2023-03-05T02:58:04;22.10;;;8.82;;
10092;SDS011;5085;48.092;11.484;2023-03-05T03:00:30;19.30;;;7.93;;
10092;SDS011;5085;48.092;11.484;2023-03-05T03:02:56;20.83;;;9.05;;
10092;SDS011;5085;48.092;11.484;2023-03-05T03:05:22;19.00;;;8.30;;
10092;SDS011;5085;48.092;11.484;2023-03-05T03:07:48;15.15;;;7.07;;
10092;SDS011;5085;48.092;11.484;2023-03-05T03:10:15;27.48;;;8.98;;
10092;SDS011;5085;48.092;11.484;2023-03-05T03:12:42;16.23;;;6.60;;
10092;SDS011;5085;48.092;11.484;2023-03-05T03:15:10;18.67;;;7.10;;
10092;SDS011;5085;48.092;11.484;2023-03-05T03:17:38;22.60;;;9.18;;
10092;SDS011;5085;48.092;11.484;2023-03-05T03:20:05;17.25;;;7.78;;
10092;SDS011;5085;48.092;11.484;2023-03-05T03:22:35;20.48;;;8.00;;
10092;SDS011;5085;48.092;11.484;2023-03-05T03:25:02;28.90;;;10.05;;
10092;SDS011;5085;48.092;11.484;2023-03-05T03:27:28;19.92;;;8.98;;
10092;SDS011;5085;48.092;11.484;2023-03-05T03:29:54;20.73;;;8.63;;
10092;SDS011;5085;48.092;11.484;2023-03-05T03:32:23;23.40;;;8.93;;
10092;SDS011;5085;48.092;11.484;2023-03-05T03:34:49;17.08;;;8.15;;
10092;SDS011;5085;48.092;11.484;2023-03-05T03:37:15;20.70;;;8.77;;
10092;SDS011;5085;48.092;11.484;2023-03-05T03:39:42;20.30;;;8.52;;
10092;SDS011;5085;48.092;11.484;2023-03-05T03:42:08;23.50;;;8.95;;
10092;SDS011;5085;48.092;11.484;2023-03-05T03:44:34;17.90;;;8.20;;
10092;SDS011;5085;48.092;11.484;2023-03-05T03:47:03;23.27;;;8.65;;
10092;SDS011;5085;48.092;11.484;2023-03-05T03:49:29;19.67;;;7.47;;
10092;SDS011;5085;48.092;11.484;2023-03-05T03:51:55;19.25;;;8.70;;
10092;SDS011;5085;48.092;11.484;2023-03-05T03:54:23;17.65;;;7.20;;
10092;SDS011;5085;48.092;11.484;2023-03-05T03:56:49;20.90;;;7.70;;
10092;SDS011;5085;48.092;11.484;2023-03-05T03:59:15;23.45;;;8.25;;
10092;SDS011;5085;48.092;11.484;2023-03-05T04:01:41;21.33;;;9.40;;
10092;SDS011;5085;48.092;11.484;2023-03-05T04:04:08;19.90;;;7.75;;
10092;SDS011;5085;48.092;11.484;2023-03-05T04:06:36;25.00;;;8.95;;
10092;SDS011;5085;48.092;11.484;2023-03-05T04:09:02;22.42;;;10.00;;
10092;SDS011;5085;48.092;11.484;2023-03-05T04:11:29;19.90;;;7.20;;
10092;SDS011;5085;48.092;11.484;2023-03-05T04:13:55;18.58;;;7.60;;
10092;SDS011;5085;48.092;11.484;2023-03-05T04:16:24;21.33;;;8.95;;
10092;SDS011;5085;48.092;11.484;2023-03-05T04:18:50;20.42;;;7.82;;
10092;SDS011;5085;48.092;11.484;2023-03-05T04:21:16;23.20;;;8.32;;
10092;SDS011;5085;48.092;11.484;2023-03-05T04:23:42;18.65;;;7.82;;
10092;SDS011;5085;48.092;11.484;2023-03-05T04:26:08;19.73;;;7.43;;
10092;SDS011;5085;48.092;11.484;2023-03-05T04:28:34;21.58;;;9.13;;
10092;SDS011;5085;48.092;11.484;2023-03-05T04:31:00;20.90;;;8.02;;
10092;SDS011;5085;48.092;11.484;2023-03-05T04:33:27;20.20;;;7.18;;
10092;SDS011;5085;48.092;11.484;2023-03-05T04:35:53;19.45;;;8.15;;
10092;SDS011;5085;48.092;11.484;2023-03-05T04:38:19;22.00;;;9.10;;
10092;SDS011;5085;48.092;11.484;2023-03-05T04:40:45;20.02;;;8.57;;
10092;SDS011;5085;48.092;11.484;2023-03-05T04:43:11;27.35;;;9.45;;
10092;SDS011;5085;48.092;11.484;2023-03-05T04:45:41;20.55;;;7.65;;
10092;SDS011;5085;48.092;11.484;2023-03-05T04:48:08;23.15;;;8.68;;
10092;SDS011;5085;48.092;11.484;2023-03-05T04:50:38;19.92;;;8.75;;
10092;SDS011;5085;48.092;11.484;2023-03-05T04:53:05;27.33;;;10.18;;
10092;SDS011;5085;48.092;11.484;2023-03-05T04:55:31;19.05;;;8.55;;
10092;SDS011;5085;48.092;11.484;2023-03-05T04:57:57;23.65;;;9.05;;
10092;SDS011;5085;48.092;11.484;2023-03-05T05:00:23;25.70;;;10.23;;
10092;SDS011;5085;48.092;11.484;2023-03-05T05:02:50;21.65;;;9.73;;
10092;SDS011;5085;48.092;11.484;2023-03-05T05:05:21;22.02;;;8.10;;
10092;SDS011;5085;48.092;11.484;2023-03-05T05:07:52;19.77;;;8.65;;
10092;SDS011;5085;48.092;11.484;2023-03-05T05:10:19;21.80;;;9.20;;
10092;SDS011;5085;48.092;11.484;2023-03-05T05:12:45;24.60;;;9.40;;
10092;SDS011;5085;48.092;11.484;2023-03-05T05:15:11;21.58;;;9.23;;
10092;SDS011;5085;48.092;11.484;2023-03-05T05:17:38;20.25;;;8.70;;
10092;SDS011;5085;48.092;11.484;2023-03-05T05:20:05;22.33;;;9.38;;
10092;SDS011;5085;48.092;11.484;2023-03-05T05:22:32;25.58;;;9.38;;
10092;SDS011;5085;48.092;11.484;2023-03-05T05:24:59;21.80;;;9.55;;
10092;SDS011;5085;48.092;11.484;2023-03-05T05:27:25;20.33;;;8.27;;
10092;SDS011;5085;48.092;11.484;2023-03-05T05:29:51;25.83;;;10.25;;
10092;SDS011;5085;48.092;11.484;2023-03-05T05:32:18;22.08;;;9.73;;
10092;SDS011;5085;48.092;11.484;2023-03-05T05:34:45;22.63;;;8.93;;
10092;SDS011;5085;48.092;11.484;2023-03-05T05:37:11;19.60;;;8.63;;
10092;SDS011;5085;48.092;11.484;2023-03-05T05:39:37;19.13;;;7.60;;
10092;SDS011;5085;48.092;11.484;2023-03-05T05:42:03;25.90;;;9.05;;
10092;SDS011;5085;48.092;11.484;2023-03-05T05:44:29;20.05;;;8.77;;
10092;SDS011;5085;48.092;11.484;2023-03-05T05:46:55;20.77;;;8.30;;
10092;SDS011;5085;48.092;11.484;2023-03-05T05:49:21;26.45;;;8.90;;
10092;SDS011;5085;48.092;11.484;2023-03-05T05:51:47;18.75;;;8.50;;
10092;SDS011;5085;48.092;11.484;2023-03-05T05:54:13;20.35;;;9.43;;
10092;SDS011;5085;48.092;11.484;2023-03-05T05:56:40;21.23;;;8.55;;
10092;SDS011;5085;48.092;11.484;2023-03-05T05:59:06;23.70;;;9.85;;
10092;SDS011;5085;48.092;11.484;2023-03-05T06:01:33;21.35;;;9.10;;
10092;SDS011;5085;48.092;11.484;2023-03-05T06:04:00;21.98;;;8.95;;
10092;SDS011;5085;48.092;11.484;2023-03-05T06:06:26;22.48;;;9.18;;
10092;SDS011;5085;48.092;11.484;2023-03-05T06:08:53;21.50;;;8.55;;
10092;SDS011;5085;48.092;11.484;2023-03-05T06:11:20;23.45;;;8.45;;
10092;SDS011;5085;48.092;11.484;2023-03-05T06:13:46;21.63;;;9.23;;
10092;SDS011;5085;48.092;11.484;2023-03-05T06:16:16;24.67;;;9.00;;
10092;SDS011;5085;48.092;11.484;2023-03-05T06:18:43;20.00;;;8.35;;
10092;SDS011;5085;48.092;11.484;2023-03-05T06:21:11;21.02;;;8.38;;
10092;SDS011;5085;48.092;11.484;2023-03-05T06:23:38;20.95;;;7.78;;
10092;SDS011;5085;48.092;11.484;2023-03-05T06:26:05;23.15;;;9.48;;
10092;SDS011;5085;48.092;11.484;2023-03-05T06:28:32;20.23;;;7.85;;
10092;SDS011;5085;48.092;11.484;2023-03-05T06:31:02;20.63;;;7.90;;
10092;SDS011;5085;48.092;11.484;2023-03-05T06:33:29;19.95;;;8.60;;
10092;SDS011;5085;48.092;11.484;2023-03-05T06:35:55;22.45;;;7.75;;
10092;SDS011;5085;48.092;11.484;2023-03-05T06:38:21;17.98;;;8.32;;
10092;SDS011;5085;48.092;11.484;2023-03-05T06:40:47;25.40;;;8.38;;
10092;SDS011;5085;48.092;11.484;2023-03-05T06:43:16;19.67;;;7.82;;
10092;SDS011;5085;48.092;11.484;2023-03-05T06:45:42;23.10;;;9.25;;
10092;SDS011;5085;48.092;11.484;2023-03-05T06:48:09;25.60;;;9.23;;
10092;SDS011;5085;48.092;11.484;2023-03-05T06:50:35;18.38;;;7.88;;
10092;SDS011;5085;48.092;11.484;2023-03-05T06:53:01;22.27;;;8.52;;
10092;SDS011;5085;48.092;11.484;2023-03-05T06:55:28;23.33;;;8.57;;
10092;SDS011;5085;48.092;11.484;2023-03-05T06:57:54;20.70;;;7.63;;
10092;SDS011;5085;48.092;11.484;2023-03-05T07:00:20;20.40;;;7.88;;
10092;SDS011;5085;48.092;11.484;2023-03-05T07:02:47;23.63;;;7.90;;
10092;SDS011;5085;48.092;11.484;2023-03-05T07:05:13;21.92;;;8.85;;
10092;SDS011;5085;48.092;11.484;2023-03-05T07:07:39;19.95;;;8.10;;
10092;SDS011;5085;48.092;11.484;2023-03-05T07:10:05;25.10;;;8.57;;
10092;SDS011;5085;48.092;11.484;2023-03-05T07:12:32;24.73;;;8.73;;
10092;SDS011;5085;48.092;11.484;2023-03-05T07:14:59;22.33;;;7.47;;
10092;SDS011;5085;48.092;11.484;2023-03-05T07:17:26;20.58;;;8.13;;
10092;SDS011;5085;48.092;11.484;2023-03-05T07:19:52;16.80;;;7.22;;
10092;SDS011;5085;48.092;11.484;2023-03-05T07:22:18;20.58;;;7.93;;
10092;SDS011;5085;48.092;11.484;2023-03-05T07:24:44;20.20;;;6.70;;
10092;SDS011;5085;48.092;11.484;2023-03-05T07:27:10;28.95;;;8.57;;
10092;SDS011;5085;48.092;11.484;2023-03-05T07:29:36;23.35;;;8.15;;
10092;SDS011;5085;48.092;11.484;2023-03-05T07:32:02;19.35;;;7.13;;
10092;SDS011;5085;48.092;11.484;2023-03-05T07:34:28;16.02;;;6.88;;
10092;SDS011;5085;48.092;11.484;2023-03-05T07:36:54;19.40;;;8.55;;
10092;SDS011;5085;48.092;11.484;2023-03-05T07:39:20;18.60;;;7.35;;
10092;SDS011;5085;48.092;11.484;2023-03-05T07:41:46;19.67;;;7.88;;
10092;SDS011;5085;48.092;11.484;2023-03-05T07:44:15;18.55;;;7.22;;
10092;SDS011;5085;48.092;11.484;2023-03-05T07:46:42;20.33;;;7.22;;
10092;SDS011;5085;48.092;11.484;2023-03-05T07:49:08;15.82;;;6.10;;
10092;SDS011;5085;48.092;11.484;2023-03-05T07:51:35;20.33;;;6.43;;
10092;SDS011;5085;48.092;11.484;2023-03-05T07:54:01;16.65;;;7.03;;
10092;SDS011;5085;48.092;11.484;2023-03-05T07:56:29;18.95;;;6.93;;
10092;SDS011;5085;48.092;11.484;2023-03-05T07:58:57;24.55;;;8.45;;
10092;SDS011;5085;48.092;11.484;2023-03-05T08:01:24;20.08;;;6.80;;
10092;SDS011;5085;48.092;11.484;2023-03-05T08:03:50;16.95;;;6.65;;
10092;SDS011;5085;48.092;11.484;2023-03-05T08:06:16;18.27;;;7.10;;
10092;SDS011;5085;48.092;11.484;2023-03-05T08:08:42;15.45;;;6.55;;
10092;SDS011;5085;48.092;11.484;2023-03-05T08:11:09;18.95;;;7.25;;
10092;SDS011;5085;48.092;11.484;2023-03-05T08:13:37;16.67;;;6.97;;
10092;SDS011;5085;48.092;11.484;2023-03-05T08:16:08;16.60;;;6.72;;
10092;SDS011;5085;48.092;11.484;2023-03-05T08:18:39;19.65;;;8.02;;
10092;SDS011;5085;48.092;11.484;2023-03-05T08:21:06;17.88;;;7.15;;
10092;SDS011;5085;48.092;11.484;2023-03-05T08:23:39;19.05;;;6.47;;
10092;SDS011;5085;48.092;11.484;2023-03-05T08:26:15;23.08;;;7.55;;
10092;SDS011;5085;48.092;11.484;2023-03-05T08:28:44;15.80;;;7.40;;
10092;SDS011;5085;48.092;11.484;2023-03-05T08:31:11;15.50;;;6.55;;
10092;SDS011;5085;48.092;11.484;2023-03-05T08:33:39;19.33;;;7.55;;
10092;SDS011;5085;48.092;11.484;2023-03-05T08:36:05;20.75;;;7.32;;
10092;SDS011;5085;48.092;11.484;2023-03-05T08:38:33;19.05;;;7.97;;
10092;SDS011;5085;48.092;11.484;2023-03-05T08:40:59;23.73;;;7.97;;
10092;SDS011;5085;48.092;11.484;2023-03-05T08:43:25;17.58;;;6.82;;
10092;SDS011;5085;48.092;11.484;2023-03-05T08:45:51;19.20;;;6.93;;
10092;SDS011;5085;48.092;11.484;2023-03-05T08:48:18;20.40;;;7.13;;
10092;SDS011;5085;48.092;11.484;2023-03-05T08:50:48;18.38;;;6.60;;
10092;SDS011;5085;48.092;11.484;2023-03-05T08:53:14;16.92;;;6.45;;
10092;SDS011;5085;48.092;11.484;2023-03-05T08:55:40;20.63;;;7.15;;
10092;SDS011;5085;48.092;11.484;2023-03-05T08:58:06;17.83;;;7.40;;
10092;SDS011;5085;48.092;11.484;2023-03-05T09:00:32;15.23;;;6.43;;
10092;SDS011;5085;48.092;11.484;2023-03-05T09:02:58;20.90;;;7.10;;
10092;SDS011;5085;48.092;11.484;2023-03-05T09:05:24;17.60;;;7.53;;
10092;SDS011;5085;48.092;11.484;2023-03-05T09:07:50;21.23;;;7.15;;
10092;SDS011;5085;48.092;11.484;2023-03-05T09:10:16;18.95;;;7.70;;
10092;SDS011;5085;48.092;11.484;2023-03-05T09:12:43;19.33;;;7.90;;
10092;SDS011;5085;48.092;11.484;2023-03-05T09:15:09;18.92;;;7.97;;
10092;SDS011;5085;48.092;11.484;2023-03-05T09:17:36;19.63;;;7.28;;
10092;SDS011;5085;48.092;11.484;2023-03-05T09:20:03;16.30;;;6.47;;
10092;SDS011;5085;48.092;11.484;2023-03-05T09:22:31;24.27;;;8.95;;
10092;SDS011;5085;48.092;11.484;2023-03-05T09:24:57;21.65;;;8.05;;
10092;SDS011;5085;48.092;11.484;2023-03-05T09:27:23;19.98;;;7.45;;
10092;SDS011;5085;48.092;11.484;2023-03-05T09:29:52;16.13;;;6.78;;
10092;SDS011;5085;48.092;11.484;2023-03-05T09:32:19;23.70;;;7.68;;
10092;SDS011;5085;48.092;11.484;2023-03-05T09:34:45;20.00;;;7.63;;
10092;SDS011;5085;48.092;11.484;2023-03-05T09:37:11;20.00;;;7.80;;
10092;SDS011;5085;48.092;11.484;2023-03-05T09:39:37;21.23;;;7.55;;
10092;SDS011;5085;48.092;11.484;2023-03-05T09:42:12;19.02;;;7.07;;
10092;SDS011;5085;48.092;11.484;2023-03-05T09:50:50;21.98;;;7.88;;
10092;SDS011;5085;48.092;11.484;2023-03-05T09:53:20;18.55;;;6.97;;
10092;SDS011;5085;48.092;11.484;2023-03-05T09:55:52;19.10;;;7.30;;
10092;SDS011;5085;48.092;11.484;2023-03-05T10:01:14;17.48;;;7.55;;
10092;SDS011;5085;48.092;11.484;2023-03-05T10:06:39;18.13;;;6.85;;
10092;SDS011;5085;48.092;11.484;2023-03-05T10:09:16;21.30;;;8.18;;
10092;SDS011;5085;48.092;11.484;2023-03-05T10:14:32;19.48;;;7.70;;
10092;SDS011;5085;48.092;11.484;2023-03-05T10:17:11;18.88;;;7.78;;
10092;SDS011;5085;48.092;11.484;2023-03-05T10:25:44;19.20;;;6.93;;
10092;SDS011;5085;48.092;11.484;2023-03-05T10:28:28;20.05;;;8.00;;
10092;SDS011;5085;48.092;11.484;2023-03-05T10:33:42;19.77;;;7.60;;
10092;SDS011;5085;48.092;11.484;2023-03-05T10:42:18;22.85;;;7.25;;
10092;SDS011;5085;48.092;11.484;2023-03-05T10:50:24;20.50;;;8.23;;
10092;SDS011;5085;48.092;11.484;2023-03-05T10:53:05;19.20;;;7.57;;
10092;SDS011;5085;48.092;11.484;2023-03-05T10:55:38;23.75;;;7.60;;
10092;SDS011;5085;48.092;11.484;2023-03-05T10:58:09;22.30;;;7.85;;
10092;SDS011;5085;48.092;11.484;2023-03-05T11:00:39;68.57;;;23.42;;
10092;SDS011;5085;48.092;11.484;2023-03-05T11:03:09;50.63;;;18.23;;
10092;SDS011;5085;48.092;11.484;2023-03-05T11:05:48;25.85;;;10.35;;
10092;SDS011;5085;48.092;11.484;2023-03-05T11:08:32;22.45;;;8.63;;
10092;SDS011;5085;48.092;11.484;2023-03-05T11:16:32;19.42;;;7.30;;
10092;SDS011;5085;48.092;11.484;2023-03-05T11:27:54;17.30;;;7.50;;
10092;SDS011;5085;48.092;11.484;2023-03-05T11:30:26;16.35;;;6.65;;
10092;SDS011;5085;48.092;11.484;2023-03-05T11:35:41;20.98;;;7.45;;
10092;SDS011;5085;48.092;11.484;2023-03-05T11:40:49;19.15;;;7.43;;
10092;SDS011;5085;48.092;11.484;2023-03-05T11:43:17;20.25;;;8.23;;
10092;SDS011;5085;48.092;11.484;2023-03-05T11:45:46;18.85;;;7.60;;
10092;SDS011;5085;48.092;11.484;2023-03-05T11:48:29;19.67;;;7.68;;
10092;SDS011;5085;48.092;11.484;2023-03-05T11:51:00;17.38;;;7.68;;
10092;SDS011;5085;48.092;11.484;2023-03-05T11:53:31;23.55;;;7.68;;
10092;SDS011;5085;48.092;11.484;2023-03-05T11:56:02;19.08;;;7.38;;
10092;SDS011;5085;48.092;11.484;2023-03-05T11:58:43;18.25;;;7.00;;
10092;SDS011;5085;48.092;11.484;2023-03-05T12:01:24;16.90;;;8.15;;
10092;SDS011;5085;48.092;11.484;2023-03-05T12:03:55;16.17;;;6.82;;
10092;SDS011;5085;48.092;11.484;2023-03-05T12:06:27;18.70;;;7.55;;
10092;SDS011;5085;48.092;11.484;2023-03-05T12:08:57;17.08;;;6.57;;
10092;SDS011;5085;48.092;11.484;2023-03-05T12:11:29;16.85;;;6.47;;
10092;SDS011;5085;48.092;11.484;2023-03-05T12:21:55;23.17;;;9.07;;
10092;SDS011;5085;48.092;11.484;2023-03-05T12:31:58;17.40;;;6.40;;
10092;SDS011;5085;48.092;11.484;2023-03-05T12:37:11;14.00;;;6.22;;
10092;SDS011;5085;48.092;11.484;2023-03-05T12:45:36;10.57;;;5.00;;
10092;SDS011;5085;48.092;11.484;2023-03-05T12:53:15;17.33;;;5.35;;
10092;SDS011;5085;48.092;11.484;2023-03-05T13:06:23;13.10;;;5.20;;
10092;SDS011;5085;48.092;11.484;2023-03-05T13:11:33;13.68;;;5.40;;
10092;SDS011;5085;48.092;11.484;2023-03-05T13:14:02;11.20;;;5.53;;
10092;SDS011;5085;48.092;11.484;2023-03-05T13:16:36;14.20;;;5.70;;
10092;SDS011;5085;48.092;11.484;2023-03-05T13:19:03;16.17;;;5.13;;
10092;SDS011;5085;48.092;11.484;2023-03-05T13:21:40;12.90;;;5.53;;
10092;SDS011;5085;48.092;11.484;2023-03-05T13:24:13;13.50;;;5.68;;
10092;SDS011;5085;48.092;11.484;2023-03-05T13:26:42;12.20;;;4.57;;
10092;SDS011;5085;48.092;11.484;2023-03-05T13:29:10;12.95;;;4.63;;
10092;SDS011;5085;48.092;11.484;2023-03-05T13:31:40;10.70;;;4.45;;
10092;SDS011;5085;48.092;11.484;2023-03-05T13:34:17;14.95;;;5.00;;
10092;SDS011;5085;48.092;11.484;2023-03-05T13:39:40;12.90;;;4.55;;
10092;SDS011;5085;48.092;11.484;2023-03-05T13:42:16;14.50;;;5.43;;
10092;SDS011;5085;48.092;11.484;2023-03-05T13:44:52;13.00;;;4.60;;
10092;SDS011;5085;48.092;11.484;2023-03-05T13:47:20;11.63;;;4.78;;
10092;SDS011;5085;48.092;11.484;2023-03-05T13:49:53;14.07;;;4.72;;
10092;SDS011;5085;48.092;11.484;2023-03-05T13:52:22;12.68;;;5.35;;
10092;SDS011;5085;48.092;11.484;2023-03-05T13:54:50;14.27;;;4.55;;
10092;SDS011;5085;48.092;11.484;2023-03-05T13:57:31;12.48;;;4.68;;
10092;SDS011;5085;48.092;11.484;2023-03-05T13:59:57;10.65;;;4.28;;
10092;SDS011;5085;48.092;11.484;2023-03-05T14:02:23;12.38;;;4.80;;
10092;SDS011;5085;48.092;11.484;2023-03-05T14:04:51;12.60;;;4.60;;
10092;SDS011;5085;48.092;11.484;2023-03-05T14:07:37;9.82;;;4.78;;
10092;SDS011;5085;48.092;11.484;2023-03-05T14:12:56;12.13;;;5.13;;
10092;SDS011;5085;48.092;11.484;2023-03-05T14:15:28;12.23;;;4.38;;
10092;SDS011;5085;48.092;11.484;2023-03-05T14:20:38;12.77;;;4.72;;
10092;SDS011;5085;48.092;11.484;2023-03-05T14:25:51;13.13;;;5.00;;
10092;SDS011;5085;48.092;11.484;2023-03-05T14:30:52;13.93;;;4.45;;
10092;SDS011;5085;48.092;11.484;2023-03-05T14:33:24;10.25;;;4.53;;
10092;SDS011;5085;48.092;11.484;2023-03-05T14:35:53;12.40;;;5.22;;
10092;SDS011;5085;48.092;11.484;2023-03-05T14:38:24;15.07;;;5.68;;
10092;SDS011;5085;48.092;11.484;2023-03-05T14:40:53;12.60;;;4.88;;
10092;SDS011;5085;48.092;11.484;2023-03-05T14:43:19;14.25;;;5.63;;
10092;SDS011;5085;48.092;11.484;2023-03-05T14:45:45;10.68;;;4.53;;
10092;SDS011;5085;48.092;11.484;2023-03-05T14:48:13;12.20;;;5.18;;
10092;SDS011;5085;48.092;11.484;2023-03-05T14:50:43;17.77;;;5.93;;
10092;SDS011;5085;48.092;11.484;2023-03-05T14:53:24;17.58;;;5.03;;
10092;SDS011;5085;48.092;11.484;2023-03-05T14:55:54;12.27;;;5.28;;
10092;SDS011;5085;48.092;11.484;2023-03-05T14:58:22;14.60;;;5.05;;
10092;SDS011;5085;48.092;11.484;2023-03-05T15:00:56;11.23;;;4.43;;
10092;SDS011;5085;48.092;11.484;2023-03-05T15:03:22;10.95;;;4.38;;
10092;SDS011;5085;48.092;11.484;2023-03-05T15:05:50;12.73;;;4.85;;
10092;SDS011;5085;48.092;11.484;2023-03-05T15:08:19;12.20;;;4.47;;
10092;SDS011;5085;48.092;11.484;2023-03-05T15:10:48;12.90;;;5.18;;
10092;SDS011;5085;48.092;11.484;2023-03-05T15:13:14;10.02;;;4.07;;
10092;SDS011;5085;48.092;11.484;2023-03-05T15:15:41;13.27;;;5.53;;
10092;SDS011;5085;48.092;11.484;2023-03-05T15:18:09;12.82;;;5.25;;
10092;SDS011;5085;48.092;11.484;2023-03-05T15:20:37;15.63;;;5.53;;
10092;SDS011;5085;48.092;11.484;2023-03-05T15:23:04;14.18;;;4.43;;
10092;SDS011;5085;48.092;11.484;2023-03-05T15:25:30;14.43;;;5.50;;
10092;SDS011;5085;48.092;11.484;2023-03-05T15:27:56;14.60;;;4.65;;
10092;SDS011;5085;48.092;11.484;2023-03-05T15:30:24;21.00;;;5.60;;
10092;SDS011;5085;48.092;11.484;2023-03-05T15:32:53;16.92;;;4.88;;
10092;SDS011;5085;48.092;11.484;2023-03-05T15:35:20;11.75;;;5.30;;
10092;SDS011;5085;48.092;11.484;2023-03-05T15:37:47;9.32;;;4.30;;
10092;SDS011;5085;48.092;11.484;2023-03-05T15:40:13;13.50;;;5.35;;
10092;SDS011;5085;48.092;11.484;2023-03-05T15:42:39;12.25;;;4.55;;
10092;SDS011;5085;48.092;11.484;2023-03-05T15:45:06;14.80;;;5.88;;
10092;SDS011;5085;48.092;11.484;2023-03-05T15:47:32;20.52;;;5.80;;
10092;SDS011;5085;48.092;11.484;2023-03-05T15:49:58;18.08;;;5.88;;
10092;SDS011;5085;48.092;11.484;2023-03-05T15:52:25;14.85;;;5.32;;
10092;SDS011;5085;48.092;11.484;2023-03-05T15:54:51;16.33;;;5.60;;
10092;SDS011;5085;48.092;11.484;2023-03-05T15:57:17;14.95;;;5.60;;
10092;SDS011;5085;48.092;11.484;2023-03-05T15:59:47;14.38;;;5.78;;
10092;SDS011;5085;48.092;11.484;2023-03-05T16:02:13;15.50;;;6.13;;
10092;SDS011;5085;48.092;11.484;2023-03-05T16:04:39;13.25;;;5.65;;
10092;SDS011;5085;48.092;11.484;2023-03-05T16:07:05;14.23;;;5.80;;
10092;SDS011;5085;48.092;11.484;2023-03-05T16:09:34;18.08;;;6.00;;
10092;SDS011;5085;48.092;11.484;2023-03-05T16:12:07;18.67;;;5.88;;
10092;SDS011;5085;48.092;11.484;2023-03-05T16:14:35;14.25;;;6.10;;
10092;SDS011;5085;48.092;11.484;2023-03-05T16:17:03;14.75;;;6.47;;
10092;SDS011;5085;48.092;11.484;2023-03-05T16:19:31;16.70;;;7.30;;
10092;SDS011;5085;48.092;11.484;2023-03-05T16:22:01;18.67;;;6.88;;
10092;SDS011;5085;48.092;11.484;2023-03-05T16:24:27;18.92;;;6.05;;
10092;SDS011;5085;48.092;11.484;2023-03-05T16:26:53;14.75;;;5.93;;
10092;SDS011;5085;48.092;11.484;2023-03-05T16:29:19;14.23;;;5.65;;
10092;SDS011;5085;48.092;11.484;2023-03-05T16:31:45;14.45;;;5.40;;
10092;SDS011;5085;48.092;11.484;2023-03-05T16:34:12;16.38;;;5.38;;
10092;SDS011;5085;48.092;11.484;2023-03-05T16:36:39;11.38;;;4.80;;
10092;SDS011;5085;48.092;11.484;2023-03-05T16:39:06;13.20;;;4.40;;